sensor_id;sensor_type;location;lat;lon;timestamp;pressure;altitude;pressure_sealevel;temperature;humidity
12219;BME280;6172;42.646;23.344;2022-07-04T00:00:19;94814.03;;;19.74;100.00
12219;BME280;6172;42.646;23.344;2022-07-04T00:02:47;94821.41;;;19.77;100.00
12219;BME280;6172;42.646;23.344;2022-07-04T00:05:16;94816.38;;;19.66;100.00
12219;BME280;6172;42.646;23.344;2022-07-04T00:07:45;94813.22;;;19.59;100.00
12219;BME280;6172;42.646;23.344;2022-07-04T00:10:16;94823.06;;;19.50;100.00
12219;BME280;6172;42.646;23.344;2022-07-04T00:12:44;94823.41;;;19.43;100.00
12219;BME280;6172;42.646;23.344;2022-07-04T00:15:12;94823.41;;;19.43;100.00
12219;BME280;6172;42.646;23.344;2022-07-04T00:17:40;94815.34;;;19.13;100.00
12219;BME280;6172;42.646;23.344;2022-07-04T00:20:08;94823.81;;;19.09;100.00
12219;BME280;6172;42.646;23.344;2022-07-04T00:22:45;94822.47;;;18.96;100.00
12219;BME280;6172;42.646;23.344;2022-07-04T00:25:12;94811.00;;;18.79;100.00
12219;BME280;6172;42.646;23.344;2022-07-04T00:27:39;94820.97;;;18.77;100.00
12219;BME280;6172;42.646;23.344;2022-07-04T00:30:07;94810.84;;;18.74;100.00
12219;BME280;6172;42.646;23.344;2022-07-04T00:32:34;94795.16;;;18.89;100.00
12219;BME280;6172;42.646;23.344;2022-07-04T00:35:01;94801.31;;;18.84;100.00
12219;BME280;6172;42.646;23.344;2022-07-04T00:37:28;94801.28;;;18.93;100.00
12219;BME280;6172;42.646;23.344;2022-07-04T00:39:57;94787.50;;;18.84;100.00
12219;BME280;6172;42.646;23.344;2022-07-04T00:42:26;94801.63;;;18.77;100.00
12219;BME280;6172;42.646;23.344;2022-07-04T00:44:53;94795.22;;;18.62;100.00
12219;BME280;6172;42.646;23.344;2022-07-04T00:47:20;94794.00;;;18.63;100.00
12219;BME280;6172;42.646;23.344;2022-07-04T00:49:47;94803.69;;;18.49;100.00
12219;BME280;6172;42.646;23.344;2022-07-04T00:52:14;94798.00;;;18.62;100.00
12219;BME280;6172;42.646;23.344;2022-07-04T00:54:42;94798.31;;;18.46;100.00
12219;BME280;6172;42.646;23.344;2022-07-04T00:57:10;94798.28;;;18.37;100.00
12219;BME280;6172;42.646;23.344;2022-07-04T00:59:37;94800.13;;;18.31;100.00
12219;BME280;6172;42.646;23.344;2022-07-04T01:02:05;94803.81;;;18.37;100.00
12219;BME280;6172;42.646;23.344;2022-07-04T01:04:33;94804.72;;;18.34;100.00
12219;BME280;6172;42.646;23.344;2022-07-04T01:07:01;94802.28;;;18.36;100.00
12219;BME280;6172;42.646;23.344;2022-07-04T01:09:28;94796.47;;;18.25;100.00
12219;BME280;6172;42.646;23.344;2022-07-04T01:11:55;94798.31;;;18.19;100.00
12219;BME280;6172;42.646;23.344;2022-07-04T01:14:24;94791.06;;;18.39;100.00
12219;BME280;6172;42.646;23.344;2022-07-04T01:16:54;94791.69;;;18.61;100.00
12219;BME280;6172;42.646;23.344;2022-07-04T01:19:24;94787.09;;;18.58;100.00
12219;BME280;6172;42.646;23.344;2022-07-04T01:21:56;94790.91;;;18.61;100.00
12219;BME280;6172;42.646;23.344;2022-07-04T01:24:23;94797.53;;;18.54;100.00
12219;BME280;6172;42.646;23.344;2022-07-04T01:26:58;94792.16;;;18.51;100.00
12219;BME280;6172;42.646;23.344;2022-07-04T01:29:33;94798.59;;;18.30;100.00
12219;BME280;6172;42.646;23.344;2022-07-04T01:32:15;94793.88;;;18.03;100.00
12219;BME280;6172;42.646;23.344;2022-07-04T01:34:47;94791.09;;;18.21;100.00
12219;BME280;6172;42.646;23.344;2022-07-04T01:37:31;94789.09;;;18.13;100.00
12219;BME280;6172;42.646;23.344;2022-07-04T01:39:59;94788.50;;;18.09;100.00
12219;BME280;6172;42.646;23.344;2022-07-04T01:42:29;94796.75;;;18.00;100.00
12219;BME280;6172;42.646;23.344;2022-07-04T01:44:57;94803.63;;;17.86;100.00
12219;BME280;6172;42.646;23.344;2022-07-04T01:47:24;94801.50;;;17.90;100.00
12219;BME280;6172;42.646;23.344;2022-07-04T01:50:10;94807.28;;;17.74;100.00
12219;BME280;6172;42.646;23.344;2022-07-04T01:52:40;94803.19;;;17.79;100.00
12219;BME280;6172;42.646;23.344;2022-07-04T01:55:09;94801.31;;;17.85;100.00
12219;BME280;6172;42.646;23.344;2022-07-04T01:57:37;94803.50;;;17.90;100.00
12219;BME280;6172;42.646;23.344;2022-07-04T02:00:09;94792.31;;;17.84;100.00
12219;BME280;6172;42.646;23.344;2022-07-04T02:03:16;94810.53;;;17.82;100.00
12219;BME280;6172;42.646;23.344;2022-07-04T02:05:45;94809.13;;;17.86;100.00
12219;BME280;6172;42.646;23.344;2022-07-04T02:08:32;94799.66;;;18.05;100.00
12219;BME280;6172;42.646;23.344;2022-07-04T02:11:12;94804.84;;;17.76;100.00
12219;BME280;6172;42.646;23.344;2022-07-04T02:13:39;94796.84;;;17.69;100.00
12219;BME280;6172;42.646;23.344;2022-07-04T02:16:05;94804.81;;;17.58;100.00
12219;BME280;6172;42.646;23.344;2022-07-04T02:18:32;94802.00;;;17.49;100.00
12219;BME280;6172;42.646;23.344;2022-07-04T02:20:59;94805.41;;;17.62;100.00
12219;BME280;6172;42.646;23.344;2022-07-04T02:23:26;94807.56;;;17.58;100.00
12219;BME280;6172;42.646;23.344;2022-07-04T02:25:54;94816.91;;;17.61;100.00
12219;BME280;6172;42.646;23.344;2022-07-04T02:28:21;94817.34;;;17.59;100.00
12219;BME280;6172;42.646;23.344;2022-07-04T02:30:48;94822.75;;;17.63;100.00
12219;BME280;6172;42.646;23.344;2022-07-04T02:33:24;94821.44;;;17.55;100.00
12219;BME280;6172;42.646;23.344;2022-07-04T02:36:02;94809.59;;;17.36;100.00
12219;BME280;6172;42.646;23.344;2022-07-04T02:38:30;94809.59;;;17.27;100.00
12219;BME280;6172;42.646;23.344;2022-07-04T02:40:58;94826.88;;;17.27;100.00
12219;BME280;6172;42.646;23.344;2022-07-04T02:43:25;94814.31;;;17.26;100.00
12219;BME280;6172;42.646;23.344;2022-07-04T02:45:53;94826.41;;;17.29;100.00
12219;BME280;6172;42.646;23.344;2022-07-04T02:48:19;94829.50;;;17.31;100.00
12219;BME280;6172;42.646;23.344;2022-07-04T02:50:46;94827.13;;;17.51;100.00
12219;BME280;6172;42.646;23.344;2022-07-04T02:53:13;94825.88;;;17.52;100.00
12219;BME280;6172;42.646;23.344;2022-07-04T02:55:40;94842.53;;;17.40;100.00
12219;BME280;6172;42.646;23.344;2022-07-04T02:58:09;94829.53;;;17.40;100.00
12219;BME280;6172;42.646;23.344;2022-07-04T03:00:36;94833.00;;;17.31;100.00
12219;BME280;6172;42.646;23.344;2022-07-04T03:03:03;94841.00;;;17.39;100.00
12219;BME280;6172;42.646;23.344;2022-07-04T03:05:30;94834.34;;;17.58;100.00
12219;BME280;6172;42.646;23.344;2022-07-04T03:07:58;94842.69;;;17.76;100.00
12219;BME280;6172;42.646;23.344;2022-07-04T03:10:25;94836.19;;;17.61;100.00
12219;BME280;6172;42.646;23.344;2022-07-04T03:12:52;94841.47;;;17.46;100.00
12219;BME280;6172;42.646;23.344;2022-07-04T03:15:20;94842.25;;;17.47;100.00
12219;BME280;6172;42.646;23.344;2022-07-04T03:17:47;94842.31;;;17.56;100.00
12219;BME280;6172;42.646;23.344;2022-07-04T03:20:14;94852.56;;;17.24;100.00
12219;BME280;6172;42.646;23.344;2022-07-04T03:22:41;94855.31;;;17.24;100.00
12219;BME280;6172;42.646;23.344;2022-07-04T03:25:08;94848.91;;;17.27;100.00
12219;BME280;6172;42.646;23.344;2022-07-04T03:27:35;94858.84;;;17.25;100.00
12219;BME280;6172;42.646;23.344;2022-07-04T03:30:02;94853.47;;;17.21;100.00
12219;BME280;6172;42.646;23.344;2022-07-04T03:32:31;94846.47;;;17.29;100.00
12219;BME280;6172;42.646;23.344;2022-07-04T03:34:59;94848.94;;;17.37;100.00
12219;BME280;6172;42.646;23.344;2022-07-04T03:37:26;94846.25;;;17.55;100.00
12219;BME280;6172;42.646;23.344;2022-07-04T03:39:53;94842.78;;;17.63;100.00
12219;BME280;6172;42.646;23.344;2022-07-04T03:42:20;94846.19;;;17.67;100.00
12219;BME280;6172;42.646;23.344;2022-07-04T03:44:47;94852.03;;;17.39;100.00
12219;BME280;6172;42.646;23.344;2022-07-04T03:47:14;94844.69;;;17.45;100.00
12219;BME280;6172;42.646;23.344;2022-07-04T03:49:42;94841.47;;;17.46;100.00
12219;BME280;6172;42.646;23.344;2022-07-04T03:52:13;94840.50;;;17.71;100.00
12219;BME280;6172;42.646;23.344;2022-07-04T03:54:43;94844.97;;;17.77;100.00
12219;BME280;6172;42.646;23.344;2022-07-04T03:57:10;94839.31;;;17.72;100.00
12219;BME280;6172;42.646;23.344;2022-07-04T03:59:38;94836.25;;;17.79;100.00
12219;BME280;6172;42.646;23.344;2022-07-04T04:02:14;94843.16;;;17.83;100.00
12219;BME280;6172;42.646;23.344;2022-07-04T04:04:43;94841.63;;;17.91;100.00
12219;BME280;6172;42.646;23.344;2022-07-04T04:07:27;94846.53;;;17.96;100.00
12219;BME280;6172;42.646;23.344;2022-07-04T04:09:54;94846.69;;;17.93;100.00
12219;BME280;6172;42.646;23.344;2022-07-04T04:12:21;94837.84;;;18.25;100.00
12219;BME280;6172;42.646;23.344;2022-07-04T04:14:48;94834.19;;;18.28;100.00
12219;BME280;6172;42.646;23.344;2022-07-04T04:17:14;94833.59;;;18.42;100.00
12219;BME280;6172;42.646;23.344;2022-07-04T04:19:43;94836.50;;;18.47;100.00
12219;BME280;6172;42.646;23.344;2022-07-04T04:22:10;94839.88;;;18.51;100.00
12219;BME280;6172;42.646;23.344;2022-07-04T04:24:37;94844.59;;;18.60;100.00
12219;BME280;6172;42.646;23.344;2022-07-04T04:27:04;94842.31;;;18.58;100.00
12219;BME280;6172;42.646;23.344;2022-07-04T04:29:31;94852.44;;;18.79;100.00
12219;BME280;6172;42.646;23.344;2022-07-04T04:31:58;94840.13;;;18.89;100.00
12219;BME280;6172;42.646;23.344;2022-07-04T04:34:25;94853.91;;;18.98;100.00
12219;BME280;6172;42.646;23.344;2022-07-04T04:36:55;94862.34;;;19.04;100.00
12219;BME280;6172;42.646;23.344;2022-07-04T04:39:23;94849.88;;;19.08;100.00
12219;BME280;6172;42.646;23.344;2022-07-04T04:41:49;94850.94;;;19.20;100.00
12219;BME280;6172;42.646;23.344;2022-07-04T04:44:17;94855.97;;;19.39;100.00
12219;BME280;6172;42.646;23.344;2022-07-04T04:46:44;94857.03;;;19.42;100.00
12219;BME280;6172;42.646;23.344;2022-07-04T04:49:11;94858.19;;;19.59;100.00
12219;BME280;6172;42.646;23.344;2022-07-04T04:51:38;94858.66;;;19.57;100.00
12219;BME280;6172;42.646;23.344;2022-07-04T04:54:08;94847.94;;;19.83;100.00
12219;BME280;6172;42.646;23.344;2022-07-04T04:56:35;94851.03;;;19.76;100.00
12219;BME280;6172;42.646;23.344;2022-07-04T04:59:02;94838.09;;;19.82;100.00
12219;BME280;6172;42.646;23.344;2022-07-04T05:01:29;94846.28;;;19.77;100.00
12219;BME280;6172;42.646;23.344;2022-07-04T05:03:56;94841.88;;;19.94;100.00
12219;BME280;6172;42.646;23.344;2022-07-04T05:06:23;94846.41;;;19.82;100.00
12219;BME280;6172;42.646;23.344;2022-07-04T05:08:50;94845.34;;;19.80;100.00
12219;BME280;6172;42.646;23.344;2022-07-04T05:11:19;94846.97;;;19.63;100.00
12219;BME280;6172;42.646;23.344;2022-07-04T05:13:46;94853.19;;;19.81;100.00
12219;BME280;6172;42.646;23.344;2022-07-04T05:16:13;94854.19;;;19.93;100.00
12219;BME280;6172;42.646;23.344;2022-07-04T05:18:40;94850.22;;;20.17;100.00
12219;BME280;6172;42.646;23.344;2022-07-04T05:21:07;94840.19;;;20.43;100.00
12219;BME280;6172;42.646;23.344;2022-07-04T05:23:33;94838.66;;;20.42;100.00
12219;BME280;6172;42.646;23.344;2022-07-04T05:26:00;94836.72;;;20.72;100.00
12219;BME280;6172;42.646;23.344;2022-07-04T05:28:30;94843.63;;;20.91;100.00
12219;BME280;6172;42.646;23.344;2022-07-04T05:30:57;94834.28;;;21.03;100.00
12219;BME280;6172;42.646;23.344;2022-07-04T05:33:24;94845.63;;;20.52;100.00
12219;BME280;6172;42.646;23.344;2022-07-04T05:35:52;94833.94;;;20.72;100.00
12219;BME280;6172;42.646;23.344;2022-07-04T05:38:18;94837.28;;;20.76;100.00
12219;BME280;6172;42.646;23.344;2022-07-04T05:40:45;94844.88;;;21.04;100.00
12219;BME280;6172;42.646;23.344;2022-07-04T05:43:12;94840.38;;;21.07;100.00
12219;BME280;6172;42.646;23.344;2022-07-04T05:45:40;94851.47;;;21.21;100.00
12219;BME280;6172;42.646;23.344;2022-07-04T05:48:07;94844.88;;;21.33;93.59
12219;BME280;6172;42.646;23.344;2022-07-04T05:50:34;94841.47;;;20.71;89.88
12219;BME280;6172;42.646;23.344;2022-07-04T05:53:01;94845.75;;;21.10;89.49
12219;BME280;6172;42.646;23.344;2022-07-04T05:55:28;94844.69;;;21.37;87.96
12219;BME280;6172;42.646;23.344;2022-07-04T05:57:55;94846.81;;;21.56;81.31
12219;BME280;6172;42.646;23.344;2022-07-04T06:00:22;94849.84;;;21.93;76.80
12219;BME280;6172;42.646;23.344;2022-07-04T06:02:50;94850.81;;;22.85;68.95
12219;BME280;6172;42.646;23.344;2022-07-04T06:05:17;94847.56;;;24.05;59.63
12219;BME280;6172;42.646;23.344;2022-07-04T06:07:44;94844.75;;;26.22;50.91
12219;BME280;6172;42.646;23.344;2022-07-04T06:10:13;94845.28;;;27.75;46.52
12219;BME280;6172;42.646;23.344;2022-07-04T06:12:40;94838.56;;;28.13;44.70
12219;BME280;6172;42.646;23.344;2022-07-04T06:15:08;94828.56;;;29.08;42.60
12219;BME280;6172;42.646;23.344;2022-07-04T06:17:36;94846.19;;;29.77;40.71
12219;BME280;6172;42.646;23.344;2022-07-04T06:20:05;94837.72;;;31.26;36.44
12219;BME280;6172;42.646;23.344;2022-07-04T06:22:39;94840.38;;;31.45;36.19
12219;BME280;6172;42.646;23.344;2022-07-04T06:25:09;94829.09;;;32.68;33.73
12219;BME280;6172;42.646;23.344;2022-07-04T06:27:36;94822.94;;;33.20;32.83
12219;BME280;6172;42.646;23.344;2022-07-04T06:30:04;94828.50;;;32.41;33.51
12219;BME280;6172;42.646;23.344;2022-07-04T06:32:41;94837.50;;;31.37;34.11
12219;BME280;6172;42.646;23.344;2022-07-04T06:35:11;94834.03;;;32.06;33.60
12219;BME280;6172;42.646;23.344;2022-07-04T06:40:44;94834.59;;;31.30;34.32
12219;BME280;6172;42.646;23.344;2022-07-04T06:43:12;94828.88;;;32.66;31.94
12219;BME280;6172;42.646;23.344;2022-07-04T06:45:40;94819.97;;;34.14;29.75
12219;BME280;6172;42.646;23.344;2022-07-04T06:48:07;94826.47;;;35.07;28.53
12219;BME280;6172;42.646;23.344;2022-07-04T06:50:40;94831.34;;;31.13;32.86
12219;BME280;6172;42.646;23.344;2022-07-04T06:53:08;94821.16;;;30.05;35.20
12219;BME280;6172;42.646;23.344;2022-07-04T06:55:36;94822.78;;;31.31;34.07
12219;BME280;6172;42.646;23.344;2022-07-04T06:58:04;94821.22;;;32.46;32.36
12219;BME280;6172;42.646;23.344;2022-07-04T07:00:36;94822.09;;;30.66;33.84
12219;BME280;6172;42.646;23.344;2022-07-04T07:03:03;94818.72;;;30.15;36.19
12219;BME280;6172;42.646;23.344;2022-07-04T07:05:30;94827.00;;;31.25;35.06
12219;BME280;6172;42.646;23.344;2022-07-04T07:07:59;94804.94;;;33.38;31.64
12219;BME280;6172;42.646;23.344;2022-07-04T07:10:26;94808.41;;;31.76;33.38
12219;BME280;6172;42.646;23.344;2022-07-04T07:12:53;94807.69;;;33.81;30.44
12219;BME280;6172;42.646;23.344;2022-07-04T07:15:20;94800.94;;;34.22;29.87
12219;BME280;6172;42.646;23.344;2022-07-04T07:17:48;94809.38;;;33.19;30.85
12219;BME280;6172;42.646;23.344;2022-07-04T07:20:15;94810.94;;;31.66;33.54
12219;BME280;6172;42.646;23.344;2022-07-04T07:22:42;94802.22;;;33.98;30.88
12219;BME280;6172;42.646;23.344;2022-07-04T07:25:12;94795.47;;;31.60;33.85
12219;BME280;6172;42.646;23.344;2022-07-04T07:27:40;94805.19;;;30.92;34.18
12219;BME280;6172;42.646;23.344;2022-07-04T07:30:09;94806.22;;;29.97;36.58
12219;BME280;6172;42.646;23.344;2022-07-04T07:32:37;94799.88;;;31.01;35.27
12219;BME280;6172;42.646;23.344;2022-07-04T07:35:06;94797.41;;;30.85;35.58
12219;BME280;6172;42.646;23.344;2022-07-04T07:37:33;94795.94;;;32.12;33.97
12219;BME280;6172;42.646;23.344;2022-07-04T07:40:00;94800.34;;;32.21;33.06
12219;BME280;6172;42.646;23.344;2022-07-04T07:42:29;94787.25;;;33.45;31.92
12219;BME280;6172;42.646;23.344;2022-07-04T07:44:56;94782.06;;;33.94;31.08
12219;BME280;6172;42.646;23.344;2022-07-04T07:47:23;94784.91;;;34.24;29.90
12219;BME280;6172;42.646;23.344;2022-07-04T07:49:50;94784.66;;;34.45;29.29
12219;BME280;6172;42.646;23.344;2022-07-04T07:52:17;94792.31;;;32.89;31.71
12219;BME280;6172;42.646;23.344;2022-07-04T07:54:44;94782.34;;;32.60;32.53
12219;BME280;6172;42.646;23.344;2022-07-04T07:57:12;94776.00;;;32.10;33.33
12219;BME280;6172;42.646;23.344;2022-07-04T07:59:42;94779.53;;;32.31;33.62
12219;BME280;6172;42.646;23.344;2022-07-04T08:02:11;94777.56;;;32.75;31.97
12219;BME280;6172;42.646;23.344;2022-07-04T08:04:39;94778.28;;;31.91;33.34
12219;BME280;6172;42.646;23.344;2022-07-04T08:07:08;94781.50;;;32.44;33.92
12219;BME280;6172;42.646;23.344;2022-07-04T08:09:36;94769.91;;;32.91;33.26
12219;BME280;6172;42.646;23.344;2022-07-04T08:12:04;94774.91;;;32.13;33.57
12219;BME280;6172;42.646;23.344;2022-07-04T08:14:33;94779.13;;;31.79;33.97
12219;BME280;6172;42.646;23.344;2022-07-04T08:17:03;94768.38;;;32.54;33.88
12219;BME280;6172;42.646;23.344;2022-07-04T08:19:31;94775.16;;;32.23;33.04
12219;BME280;6172;42.646;23.344;2022-07-04T08:21:58;94775.66;;;32.70;33.76
12219;BME280;6172;42.646;23.344;2022-07-04T08:24:25;94778.28;;;31.71;34.27
12219;BME280;6172;42.646;23.344;2022-07-04T08:26:52;94767.22;;;32.42;34.14
12219;BME280;6172;42.646;23.344;2022-07-04T08:29:20;94769.53;;;32.94;32.63
12219;BME280;6172;42.646;23.344;2022-07-04T08:31:47;94765.56;;;32.82;33.39
12219;BME280;6172;42.646;23.344;2022-07-04T08:34:16;94771.03;;;32.24;33.77
12219;BME280;6172;42.646;23.344;2022-07-04T08:36:43;94766.06;;;31.89;34.56
12219;BME280;6172;42.646;23.344;2022-07-04T08:39:10;94763.28;;;31.96;34.59
12219;BME280;6172;42.646;23.344;2022-07-04T08:41:39;94759.09;;;32.74;34.64
12219;BME280;6172;42.646;23.344;2022-07-04T08:44:07;94755.16;;;32.13;34.66
12219;BME280;6172;42.646;23.344;2022-07-04T08:46:38;94755.19;;;31.31;36.39
12219;BME280;6172;42.646;23.344;2022-07-04T08:49:10;94767.84;;;30.91;36.64
12219;BME280;6172;42.646;23.344;2022-07-04T08:51:45;94764.88;;;29.66;39.64
12219;BME280;6172;42.646;23.344;2022-07-04T08:54:15;94764.84;;;30.24;39.46
12219;BME280;6172;42.646;23.344;2022-07-04T08:57:00;94757.97;;;30.12;38.93
12219;BME280;6172;42.646;23.344;2022-07-04T08:59:44;94752.41;;;31.39;37.78
12219;BME280;6172;42.646;23.344;2022-07-04T09:02:16;94758.81;;;30.46;39.19
12219;BME280;6172;42.646;23.344;2022-07-04T09:04:45;94751.09;;;30.73;38.73
12219;BME280;6172;42.646;23.344;2022-07-04T09:07:15;94761.75;;;30.67;39.07
12219;BME280;6172;42.646;23.344;2022-07-04T09:09:43;94751.56;;;30.38;39.41
12219;BME280;6172;42.646;23.344;2022-07-04T09:12:14;94757.56;;;29.89;41.60
12219;BME280;6172;42.646;23.344;2022-07-04T09:14:43;94757.19;;;30.24;40.86
12219;BME280;6172;42.646;23.344;2022-07-04T09:17:12;94755.06;;;28.91;43.78
12219;BME280;6172;42.646;23.344;2022-07-04T09:19:41;94755.91;;;28.25;45.45
12219;BME280;6172;42.646;23.344;2022-07-04T09:22:11;94746.97;;;29.51;44.08
12219;BME280;6172;42.646;23.344;2022-07-04T09:24:44;94753.47;;;29.90;43.23
12219;BME280;6172;42.646;23.344;2022-07-04T09:27:29;94757.59;;;30.55;42.85
12219;BME280;6172;42.646;23.344;2022-07-04T09:29:59;94749.56;;;31.31;40.88
12219;BME280;6172;42.646;23.344;2022-07-04T09:32:34;94744.88;;;31.34;40.01
12219;BME280;6172;42.646;23.344;2022-07-04T09:35:04;94748.03;;;31.92;39.48
12219;BME280;6172;42.646;23.344;2022-07-04T09:37:41;94740.44;;;32.07;39.02
12219;BME280;6172;42.646;23.344;2022-07-04T09:40:22;94736.53;;;30.95;40.70
12219;BME280;6172;42.646;23.344;2022-07-04T09:42:50;94745.19;;;30.24;41.70
12219;BME280;6172;42.646;23.344;2022-07-04T09:45:18;94732.34;;;30.88;41.61
12219;BME280;6172;42.646;23.344;2022-07-04T09:47:47;94735.28;;;30.83;41.55
12219;BME280;6172;42.646;23.344;2022-07-04T09:50:16;94737.88;;;31.89;40.66
12219;BME280;6172;42.646;23.344;2022-07-04T09:52:49;94736.25;;;30.85;41.49
12219;BME280;6172;42.646;23.344;2022-07-04T09:55:26;94737.13;;;31.14;40.85
12219;BME280;6172;42.646;23.344;2022-07-04T09:57:55;94736.78;;;31.92;39.47
12219;BME280;6172;42.646;23.344;2022-07-04T10:00:24;94734.13;;;31.94;39.37
12219;BME280;6172;42.646;23.344;2022-07-04T10:02:53;94737.25;;;32.67;36.50
12219;BME280;6172;42.646;23.344;2022-07-04T10:05:23;94732.41;;;33.33;35.28
12219;BME280;6172;42.646;23.344;2022-07-04T10:07:50;94728.03;;;31.82;37.28
12219;BME280;6172;42.646;23.344;2022-07-04T10:10:27;94728.44;;;33.21;35.50
12219;BME280;6172;42.646;23.344;2022-07-04T10:12:55;94723.63;;;33.74;35.03
12219;BME280;6172;42.646;23.344;2022-07-04T10:15:22;94732.41;;;32.83;36.06
12219;BME280;6172;42.646;23.344;2022-07-04T10:17:50;94732.78;;;31.26;38.31
12219;BME280;6172;42.646;23.344;2022-07-04T10:20:19;94736.00;;;32.47;35.75
12219;BME280;6172;42.646;23.344;2022-07-04T10:22:48;94735.56;;;33.15;34.84
12219;BME280;6172;42.646;23.344;2022-07-04T10:25:16;94723.59;;;33.44;34.29
12219;BME280;6172;42.646;23.344;2022-07-04T10:27:45;94725.13;;;33.75;33.78
12219;BME280;6172;42.646;23.344;2022-07-04T10:30:16;94719.09;;;33.71;33.89
12219;BME280;6172;42.646;23.344;2022-07-04T10:32:45;94726.47;;;31.33;36.94
12219;BME280;6172;42.646;23.344;2022-07-04T10:35:16;94730.09;;;30.87;37.85
12219;BME280;6172;42.646;23.344;2022-07-04T10:38:00;94726.25;;;31.72;37.37
12219;BME280;6172;42.646;23.344;2022-07-04T10:40:42;94703.31;;;32.60;35.06
12219;BME280;6172;42.646;23.344;2022-07-04T10:43:39;94710.69;;;32.27;35.39
12219;BME280;6172;42.646;23.344;2022-07-04T10:49:20;94706.25;;;31.83;36.33
12219;BME280;6172;42.646;23.344;2022-07-04T10:51:48;94705.00;;;31.50;36.67
12219;BME280;6172;42.646;23.344;2022-07-04T10:54:16;94709.56;;;31.33;37.07
12219;BME280;6172;42.646;23.344;2022-07-04T10:56:52;94704.47;;;31.52;36.78
12219;BME280;6172;42.646;23.344;2022-07-04T10:59:24;94711.09;;;30.67;38.70
12219;BME280;6172;42.646;23.344;2022-07-04T11:01:57;94689.38;;;30.88;37.62
12219;BME280;6172;42.646;23.344;2022-07-04T11:04:47;94692.94;;;30.02;39.25
12219;BME280;6172;42.646;23.344;2022-07-04T11:07:17;94691.56;;;30.35;39.08
12219;BME280;6172;42.646;23.344;2022-07-04T11:09:45;94686.38;;;30.73;38.31
12219;BME280;6172;42.646;23.344;2022-07-04T11:12:13;94689.03;;;29.79;39.73
12219;BME280;6172;42.646;23.344;2022-07-04T11:14:47;94683.22;;;30.03;39.62
12219;BME280;6172;42.646;23.344;2022-07-04T11:17:20;94689.59;;;30.04;38.33
12219;BME280;6172;42.646;23.344;2022-07-04T11:19:53;94686.88;;;29.98;39.18
12219;BME280;6172;42.646;23.344;2022-07-04T11:22:33;94687.97;;;30.34;39.13
12219;BME280;6172;42.646;23.344;2022-07-04T11:25:00;94681.94;;;30.17;39.97
12219;BME280;6172;42.646;23.344;2022-07-04T11:27:27;94684.09;;;30.11;40.63
12219;BME280;6172;42.646;23.344;2022-07-04T11:29:57;94684.84;;;29.86;41.66
12219;BME280;6172;42.646;23.344;2022-07-04T11:32:31;94685.41;;;30.23;40.67
12219;BME280;6172;42.646;23.344;2022-07-04T11:34:58;94681.38;;;29.67;41.32
12219;BME280;6172;42.646;23.344;2022-07-04T11:37:25;94690.47;;;29.41;42.11
12219;BME280;6172;42.646;23.344;2022-07-04T11:39:54;94679.25;;;29.41;41.81
12219;BME280;6172;42.646;23.344;2022-07-04T11:46:10;94673.72;;;29.67;41.59
12219;BME280;6172;42.646;23.344;2022-07-04T11:48:40;94673.56;;;29.15;41.87
12219;BME280;6172;42.646;23.344;2022-07-04T11:51:16;94671.00;;;29.62;42.11
12219;BME280;6172;42.646;23.344;2022-07-04T11:53:45;94653.28;;;30.19;40.43
12219;BME280;6172;42.646;23.344;2022-07-04T11:56:12;94649.56;;;30.37;40.51
12219;BME280;6172;42.646;23.344;2022-07-04T11:58:40;94628.41;;;30.10;41.58
12219;BME280;6172;42.646;23.344;2022-07-04T12:01:10;94650.91;;;30.23;41.35
12219;BME280;6172;42.646;23.344;2022-07-04T12:03:41;94638.28;;;30.50;40.49
12219;BME280;6172;42.646;23.344;2022-07-04T12:06:08;94626.13;;;30.21;42.41
12219;BME280;6172;42.646;23.344;2022-07-04T12:08:35;94643.28;;;30.31;40.70
12219;BME280;6172;42.646;23.344;2022-07-04T12:11:02;94641.91;;;30.24;40.71
12219;BME280;6172;42.646;23.344;2022-07-04T12:13:31;94632.84;;;30.18;40.60
12219;BME280;6172;42.646;23.344;2022-07-04T12:16:18;94629.91;;;29.98;41.07
12219;BME280;6172;42.646;23.344;2022-07-04T12:18:45;94631.78;;;29.69;41.56
12219;BME280;6172;42.646;23.344;2022-07-04T12:21:16;94642.34;;;30.02;42.43
12219;BME280;6172;42.646;23.344;2022-07-04T12:23:50;94631.78;;;29.82;43.04
12219;BME280;6172;42.646;23.344;2022-07-04T12:26:18;94639.13;;;29.72;42.72
12219;BME280;6172;42.646;23.344;2022-07-04T12:28:45;94633.00;;;29.29;43.78
12219;BME280;6172;42.646;23.344;2022-07-04T12:31:41;94630.00;;;29.53;43.76
12219;BME280;6172;42.646;23.344;2022-07-04T12:34:13;94612.72;;;29.49;43.24
12219;BME280;6172;42.646;23.344;2022-07-04T12:36:48;94627.69;;;29.83;43.73
12219;BME280;6172;42.646;23.344;2022-07-04T12:39:32;94613.56;;;30.09;41.98
12219;BME280;6172;42.646;23.344;2022-07-04T12:42:07;94609.50;;;30.10;43.33
12219;BME280;6172;42.646;23.344;2022-07-04T12:44:36;94615.94;;;30.31;43.09
12219;BME280;6172;42.646;23.344;2022-07-04T12:47:06;94618.09;;;30.38;42.47
12219;BME280;6172;42.646;23.344;2022-07-04T12:49:35;94609.81;;;29.55;44.11
12219;BME280;6172;42.646;23.344;2022-07-04T12:52:08;94606.69;;;29.45;43.99
12219;BME280;6172;42.646;23.344;2022-07-04T12:54:35;94614.78;;;30.14;43.92
12219;BME280;6172;42.646;23.344;2022-07-04T12:57:11;94617.94;;;29.97;43.46
12219;BME280;6172;42.646;23.344;2022-07-04T12:59:40;94612.56;;;29.60;43.45
12219;BME280;6172;42.646;23.344;2022-07-04T13:02:10;94622.56;;;29.43;44.19
12219;BME280;6172;42.646;23.344;2022-07-04T13:04:38;94610.91;;;29.39;43.76
12219;BME280;6172;42.646;23.344;2022-07-04T13:07:12;94612.81;;;29.31;44.12
12219;BME280;6172;42.646;23.344;2022-07-04T13:09:41;94608.09;;;29.65;44.23
12219;BME280;6172;42.646;23.344;2022-07-04T13:12:08;94603.53;;;30.01;44.76
12219;BME280;6172;42.646;23.344;2022-07-04T13:14:49;94589.34;;;30.19;42.77
12219;BME280;6172;42.646;23.344;2022-07-04T13:17:18;94595.22;;;30.55;42.57